createdAt,value
2017-12-17T00:00:40.636Z,11.43
2017-12-17T00:03:08.135Z,17.03
2017-12-17T00:05:36.401Z,13.17
2017-12-17T00:08:03.902Z,9.53
2017-12-17T00:10:32.147Z,11.90
2017-12-17T00:12:59.644Z,8.90
2017-12-17T00:15:27.128Z,10.00
2017-12-17T00:17:55.387Z,6.30
2017-12-17T00:20:22.867Z,9.07
2017-12-17T00:22:50.373Z,11.30
2017-12-17T00:25:17.856Z,20.43
2017-12-17T00:27:59.504Z,12.93
2017-12-17T00:30:26.983Z,8.63
2017-12-17T00:32:54.471Z,7.90
2017-12-17T00:35:22.721Z,11.13
2017-12-17T00:37:50.219Z,8.70
2017-12-17T00:40:17.731Z,14.13
2017-12-17T00:42:45.207Z,9.97
2017-12-17T00:45:12.699Z,9.27
2017-12-17T00:47:40.176Z,8.67
2017-12-17T00:50:07.672Z,9.13
2017-12-17T00:52:35.912Z,8.00
2017-12-17T00:57:37.435Z,9.07
2017-12-17T01:00:04.944Z,9.90
2017-12-17T01:02:32.425Z,13.10
2017-12-17T01:04:59.923Z,12.00
2017-12-17T01:07:27.406Z,12.50
2017-12-17T01:09:54.894Z,7.57
2017-12-17T01:12:22.376Z,12.30
2017-12-17T01:14:50.680Z,9.03
2017-12-17T01:17:18.920Z,8.97
2017-12-17T01:19:46.411Z,14.17
2017-12-17T01:22:13.892Z,8.23
2017-12-17T01:24:41.388Z,10.27
2017-12-17T01:27:08.868Z,6.30
2017-12-17T01:29:36.407Z,8.40
2017-12-17T01:32:04.647Z,7.00
2017-12-17T01:34:32.144Z,8.77
2017-12-17T01:36:59.610Z,5.47
2017-12-17T01:39:27.132Z,7.70
2017-12-17T01:41:54.608Z,9.07
2017-12-17T01:44:22.083Z,6.80
2017-12-17T01:46:49.584Z,5.97
2017-12-17T01:49:17.060Z,6.23
2017-12-17T01:51:44.564Z,7.47
2017-12-17T01:54:12.803Z,7.07
2017-12-17T01:56:40.301Z,5.70
2017-12-17T01:59:07.780Z,5.70
2017-12-17T02:01:36.048Z,5.63
2017-12-17T02:04:03.527Z,7.20
2017-12-17T02:06:31.019Z,6.87
2017-12-17T02:08:59.447Z,4.63
2017-12-17T02:11:26.951Z,7.37
2017-12-17T02:13:54.428Z,5.20
2017-12-17T02:16:21.936Z,6.80
2017-12-17T02:18:49.411Z,3.90
2017-12-17T02:21:16.911Z,6.97
2017-12-17T02:23:44.393Z,5.90
2017-12-17T02:26:11.889Z,4.00
2017-12-17T02:28:40.142Z,4.50
2017-12-17T02:31:07.649Z,5.60
2017-12-17T02:33:35.896Z,5.43
2017-12-17T02:36:03.391Z,4.17
2017-12-17T02:38:30.872Z,5.33
2017-12-17T02:40:58.391Z,4.13
2017-12-17T02:43:25.892Z,3.90
2017-12-17T02:45:53.385Z,4.30
2017-12-17T02:48:21.649Z,7.70
2017-12-17T02:50:49.131Z,8.50
2017-12-17T02:53:16.624Z,4.80
2017-12-17T02:55:44.876Z,4.77
2017-12-17T02:58:12.367Z,4.00
2017-12-17T03:00:39.841Z,7.63
2017-12-17T03:03:08.103Z,4.60
2017-12-17T03:05:35.571Z,9.30
2017-12-17T03:08:03.064Z,8.80
2017-12-17T03:10:31.304Z,6.30
2017-12-17T03:12:58.807Z,6.13
2017-12-17T03:15:26.288Z,5.13
2017-12-17T03:17:53.790Z,6.57
2017-12-17T03:20:21.273Z,5.20
2017-12-17T03:22:48.778Z,7.23
2017-12-17T03:25:16.260Z,5.90
2017-12-17T03:27:43.763Z,5.70
2017-12-17T03:30:12.009Z,5.63
2017-12-17T03:32:39.592Z,5.17
2017-12-17T03:35:07.087Z,6.53
2017-12-17T03:37:35.335Z,7.30
2017-12-17T03:40:02.827Z,6.97
2017-12-17T03:42:30.300Z,6.20
2017-12-17T03:44:57.792Z,5.40
2017-12-17T03:47:25.269Z,6.97
2017-12-17T03:49:52.786Z,6.67
2017-12-17T03:52:20.264Z,12.33
2017-12-17T03:54:47.764Z,6.80
2017-12-17T03:57:16.004Z,5.50
2017-12-17T03:59:43.496Z,4.50
2017-12-17T04:02:10.972Z,8.13
2017-12-17T04:04:38.472Z,5.70
2017-12-17T04:07:05.948Z,6.57
2017-12-17T04:09:33.441Z,6.03
2017-12-17T04:12:00.920Z,6.90
2017-12-17T04:14:28.415Z,10.03
2017-12-17T04:16:55.902Z,6.50
2017-12-17T04:19:24.164Z,6.87
2017-12-17T04:21:51.636Z,6.90
2017-12-17T04:24:19.112Z,5.03
2017-12-17T04:26:46.611Z,8.97
2017-12-17T04:29:14.871Z,7.20
2017-12-17T04:31:42.367Z,6.03
2017-12-17T04:34:09.856Z,9.53
2017-12-17T04:36:37.356Z,8.27
2017-12-17T04:39:04.846Z,8.67
2017-12-17T04:41:32.340Z,6.33
2017-12-17T04:44:00.579Z,9.70
2017-12-17T04:46:28.070Z,6.93
2017-12-17T04:48:55.556Z,12.00
2017-12-17T04:51:23.052Z,10.60
2017-12-17T04:53:51.299Z,3.87
2017-12-17T04:56:18.787Z,4.97
2017-12-17T04:58:46.268Z,5.43
2017-12-17T05:01:14.523Z,8.10
2017-12-17T05:03:41.999Z,9.03
2017-12-17T05:06:09.501Z,5.27
2017-12-17T05:08:37.743Z,9.17
2017-12-17T05:11:05.245Z,8.97
2017-12-17T05:13:33.491Z,5.87
2017-12-17T05:16:00.989Z,4.57
2017-12-17T05:18:28.463Z,4.03
2017-12-17T05:20:55.948Z,11.13
2017-12-17T05:23:24.203Z,5.10
2017-12-17T05:25:51.675Z,4.80
2017-12-17T05:28:19.171Z,8.60
2017-12-17T05:30:47.411Z,9.97
2017-12-17T05:33:14.909Z,3.67
2017-12-17T05:35:42.381Z,3.20
2017-12-17T05:38:09.877Z,8.13
2017-12-17T05:40:38.121Z,8.70
2017-12-17T05:43:05.616Z,3.70
2017-12-17T05:45:33.086Z,8.80
2017-12-17T05:48:00.588Z,5.90
2017-12-17T05:50:28.091Z,3.30
2017-12-17T05:52:55.596Z,11.70
2017-12-17T05:55:23.076Z,5.00
2017-12-17T05:57:50.572Z,6.20
2017-12-17T06:00:18.051Z,4.63
2017-12-17T06:02:45.551Z,4.67
2017-12-17T06:05:13.023Z,5.20
2017-12-17T06:07:40.511Z,6.53
2017-12-17T06:10:07.984Z,3.97
2017-12-17T06:12:35.491Z,3.77
2017-12-17T06:15:02.967Z,4.40
2017-12-17T06:17:30.443Z,7.00
2017-12-17T06:19:57.938Z,2.83
2017-12-17T06:22:25.419Z,10.33
2017-12-17T06:24:52.919Z,7.50
2017-12-17T06:27:21.164Z,5.47
2017-12-17T06:29:48.661Z,8.63
2017-12-17T06:32:16.137Z,6.40
2017-12-17T06:34:43.628Z,7.10
2017-12-17T06:37:11.874Z,4.83
2017-12-17T06:39:39.367Z,2.10
2017-12-17T06:42:07.627Z,3.10
2017-12-17T06:44:35.123Z,4.53
2017-12-17T06:47:02.596Z,5.10
2017-12-17T06:49:30.089Z,3.53
2017-12-17T06:51:57.567Z,6.70
2017-12-17T06:54:25.060Z,3.40
2017-12-17T06:56:52.534Z,3.40
2017-12-17T06:59:20.027Z,7.00
2017-12-17T07:01:47.510Z,10.30
2017-12-17T07:04:14.999Z,5.10
2017-12-17T07:06:43.240Z,6.13
2017-12-17T07:09:10.771Z,4.00
2017-12-17T07:11:38.275Z,5.40
2017-12-17T07:14:05.758Z,3.00
2017-12-17T07:16:33.261Z,2.07
2017-12-17T07:19:01.507Z,2.60
2017-12-17T07:21:28.991Z,4.53
2017-12-17T07:23:56.467Z,3.70
2017-12-17T07:26:23.961Z,3.90
2017-12-17T07:28:52.203Z,3.43
2017-12-17T07:31:19.700Z,3.50
2017-12-17T07:33:47.180Z,2.67
2017-12-17T07:36:15.435Z,3.20
2017-12-17T07:38:46.628Z,2.90
2017-12-17T07:41:14.892Z,4.00
2017-12-17T07:43:42.384Z,3.97
2017-12-17T07:46:09.880Z,3.73
2017-12-17T07:48:37.390Z,9.10
2017-12-17T07:51:04.896Z,4.50
2017-12-17T07:53:33.140Z,6.00
2017-12-17T07:56:00.616Z,6.90
2017-12-17T07:58:28.123Z,7.90
2017-12-17T08:00:56.360Z,2.47
2017-12-17T08:03:23.859Z,5.10
2017-12-17T08:05:51.335Z,5.87
2017-12-17T08:08:18.828Z,5.50
2017-12-17T08:10:47.077Z,43.90
2017-12-17T08:13:14.574Z,13.97
2017-12-17T08:15:42.063Z,6.47
2017-12-17T08:18:10.323Z,5.20
2017-12-17T08:20:37.811Z,4.70
2017-12-17T08:23:13.120Z,4.80
2017-12-17T08:25:40.603Z,10.97
2017-12-17T08:28:08.101Z,4.30
2017-12-17T08:30:36.360Z,5.40
2017-12-17T08:33:03.865Z,4.23
2017-12-17T08:35:32.111Z,5.03
2017-12-17T08:37:59.615Z,3.80
2017-12-17T08:40:27.856Z,6.07
2017-12-17T08:42:56.195Z,5.90
2017-12-17T08:45:24.461Z,5.00
2017-12-17T08:47:51.968Z,8.23
2017-12-17T08:50:19.472Z,5.87
2017-12-17T08:52:47.038Z,5.57
2017-12-17T08:55:14.592Z,4.70
2017-12-17T08:57:42.084Z,3.43
2017-12-17T09:00:09.564Z,7.33
2017-12-17T09:02:37.043Z,4.90
2017-12-17T09:05:04.544Z,8.47
2017-12-17T09:07:32.804Z,9.60
2017-12-17T09:10:00.305Z,10.00
2017-12-17T09:12:28.555Z,4.37
2017-12-17T09:14:56.042Z,5.30
2017-12-17T09:17:23.523Z,3.57
2017-12-17T09:19:51.012Z,6.20
2017-12-17T09:22:19.255Z,10.50
2017-12-17T09:24:46.763Z,11.70
2017-12-17T09:27:15.007Z,5.73
2017-12-17T09:29:42.502Z,7.87
2017-12-17T09:32:09.967Z,6.33
2017-12-17T09:34:37.467Z,11.60
2017-12-17T09:37:05.708Z,4.90
2017-12-17T09:39:33.194Z,7.87
2017-12-17T09:42:00.670Z,5.30
2017-12-17T09:44:28.178Z,6.10
2017-12-17T09:46:55.655Z,6.10
2017-12-17T09:49:23.161Z,7.90
2017-12-17T09:51:50.686Z,8.47
2017-12-17T09:54:18.224Z,8.30
2017-12-17T09:56:45.709Z,7.23
2017-12-17T09:59:13.979Z,5.43
2017-12-17T10:01:41.447Z,6.63
2017-12-17T10:04:08.937Z,4.07
2017-12-17T10:06:36.449Z,5.30
2017-12-17T10:09:04.715Z,7.73
2017-12-17T10:11:32.215Z,4.97
2017-12-17T10:13:59.687Z,4.40
2017-12-17T10:16:27.195Z,5.33
2017-12-17T10:18:54.675Z,7.53
2017-12-17T10:21:23.846Z,7.83
2017-12-17T10:23:51.329Z,8.37
2017-12-17T10:26:18.824Z,5.10
2017-12-17T10:28:46.510Z,4.27
2017-12-17T10:31:14.786Z,4.70
2017-12-17T10:33:43.037Z,7.50
2017-12-17T10:36:11.379Z,8.90
2017-12-17T10:38:38.908Z,13.73
2017-12-17T10:41:06.412Z,7.73
2017-12-17T10:43:36.599Z,8.33
2017-12-17T10:46:04.119Z,4.40
2017-12-17T10:48:32.373Z,5.23
2017-12-17T10:50:59.884Z,4.47
2017-12-17T10:53:27.364Z,8.03
2017-12-17T10:55:54.863Z,8.13
2017-12-17T10:58:22.341Z,10.37
2017-12-17T11:00:49.836Z,10.23
2017-12-17T11:03:17.324Z,11.30
2017-12-17T11:05:45.574Z,10.00
2017-12-17T11:08:13.100Z,10.33
2017-12-17T11:10:40.587Z,7.43
2017-12-17T11:13:08.081Z,3.90
2017-12-17T11:15:35.562Z,8.27
2017-12-17T11:18:03.068Z,8.13
2017-12-17T11:20:30.555Z,5.50
2017-12-17T11:22:58.056Z,7.97
2017-12-17T11:25:25.535Z,6.57
2017-12-17T11:27:53.031Z,8.50
2017-12-17T11:30:26.577Z,6.60
2017-12-17T11:32:54.076Z,5.73
2017-12-17T11:35:21.559Z,6.80
2017-12-17T11:37:49.063Z,7.57
2017-12-17T11:40:17.316Z,6.20
2017-12-17T11:42:44.864Z,11.63
2017-12-17T11:45:12.351Z,4.40
2017-12-17T11:47:39.851Z,4.50
2017-12-17T11:50:07.328Z,6.60
2017-12-17T11:52:35.607Z,5.93
2017-12-17T11:55:03.857Z,5.97
2017-12-17T11:57:31.370Z,4.50
2017-12-17T11:59:59.618Z,6.73
2017-12-17T12:02:27.095Z,5.53
2017-12-17T12:04:54.592Z,6.00
2017-12-17T12:07:22.079Z,4.50
2017-12-17T12:09:50.370Z,14.73
2017-12-17T12:12:18.632Z,5.63
2017-12-17T12:14:46.144Z,9.63
2017-12-17T12:17:13.623Z,6.93
2017-12-17T12:19:41.124Z,5.93
2017-12-17T12:22:08.615Z,7.90
2017-12-17T12:24:36.121Z,10.10
2017-12-17T12:27:03.599Z,8.00
2017-12-17T12:29:31.099Z,6.80
2017-12-17T12:31:58.574Z,5.77
2017-12-17T12:34:26.081Z,5.30
2017-12-17T12:36:54.327Z,6.47
2017-12-17T12:39:22.419Z,5.37
2017-12-17T12:41:49.920Z,8.43
2017-12-17T12:47:09.166Z,7.47
2017-12-17T12:49:36.694Z,5.40
2017-12-17T12:52:04.175Z,18.43
2017-12-17T12:54:32.440Z,7.13
2017-12-17T12:56:59.931Z,9.77
2017-12-17T12:59:28.192Z,7.70
2017-12-17T13:01:57.678Z,8.43
2017-12-17T13:04:25.192Z,9.70
2017-12-17T13:06:52.674Z,7.50
2017-12-17T13:09:20.152Z,7.23
2017-12-17T13:11:48.415Z,7.60
2017-12-17T13:14:15.900Z,9.67
2017-12-17T13:16:43.397Z,8.07
2017-12-17T13:19:10.876Z,9.40
2017-12-17T13:21:38.397Z,12.40
2017-12-17T13:24:05.895Z,10.30
2017-12-17T13:26:37.424Z,6.80
2017-12-17T13:29:30.621Z,6.47
2017-12-17T13:32:02.351Z,12.67
2017-12-17T13:34:35.140Z,9.17
2017-12-17T13:37:02.654Z,7.53
2017-12-17T13:39:31.127Z,8.33
2017-12-17T13:41:58.639Z,6.70
2017-12-17T13:44:26.924Z,9.53
2017-12-17T13:46:54.405Z,6.90
2017-12-17T13:49:21.902Z,6.90
2017-12-17T13:51:51.383Z,7.17
2017-12-17T13:54:18.914Z,9.33
2017-12-17T13:56:46.476Z,8.10
2017-12-17T13:59:13.976Z,5.90
2017-12-17T14:01:42.347Z,8.27
2017-12-17T14:04:09.953Z,6.90
2017-12-17T14:06:37.488Z,9.17
2017-12-17T14:09:05.035Z,7.10
2017-12-17T14:11:32.563Z,8.37
2017-12-17T14:14:00.857Z,7.70
2017-12-17T14:16:29.141Z,5.87
2017-12-17T14:18:57.426Z,6.97
2017-12-17T14:21:25.724Z,5.30
2017-12-17T14:24:11.950Z,8.03
2017-12-17T14:26:39.483Z,7.43
2017-12-17T14:29:07.792Z,6.90
2017-12-17T14:31:35.372Z,6.97
2017-12-17T14:34:02.909Z,11.70
2017-12-17T14:36:30.409Z,8.03
2017-12-17T14:39:05.598Z,7.70
2017-12-17T14:41:33.128Z,9.60
2017-12-17T14:44:01.446Z,7.80
2017-12-17T14:46:28.965Z,6.63
2017-12-17T14:48:56.488Z,8.33
2017-12-17T14:51:24.759Z,11.23
2017-12-17T14:53:52.284Z,16.27
2017-12-17T14:56:19.807Z,11.17
2017-12-17T14:58:47.312Z,12.30
2017-12-17T15:01:14.800Z,11.53
2017-12-17T15:03:42.322Z,10.60
2017-12-17T15:06:09.826Z,9.70
2017-12-17T15:08:37.344Z,8.77
2017-12-17T15:11:27.232Z,8.40
2017-12-17T15:13:55.517Z,10.57
2017-12-17T15:16:23.816Z,10.30
2017-12-17T15:18:52.083Z,9.47
2017-12-17T15:21:19.575Z,9.03
2017-12-17T15:23:47.838Z,9.57
2017-12-17T15:26:15.316Z,7.47
2017-12-17T15:28:42.844Z,8.50
2017-12-17T15:31:10.339Z,10.50
2017-12-17T15:33:45.209Z,7.50
2017-12-17T15:36:13.499Z,9.13
2017-12-17T15:38:41.090Z,9.40
2017-12-17T15:41:08.620Z,12.03
2017-12-17T15:43:36.203Z,21.00
2017-12-17T15:46:03.737Z,16.33
2017-12-17T15:48:31.270Z,12.50
2017-12-17T15:50:58.791Z,13.57
2017-12-17T15:53:31.684Z,11.20
2017-12-17T15:55:59.233Z,13.17
2017-12-17T15:58:26.732Z,14.73
2017-12-17T16:00:54.322Z,11.90
2017-12-17T16:03:21.864Z,10.00
2017-12-17T16:05:49.423Z,17.00
2017-12-17T16:08:16.951Z,9.83
2017-12-17T16:10:45.268Z,9.00
2017-12-17T16:13:13.273Z,10.63
2017-12-17T16:15:41.581Z,13.40
2017-12-17T16:18:09.103Z,12.57
2017-12-17T16:20:36.655Z,12.10
2017-12-17T16:23:05.136Z,7.77
2017-12-17T16:25:33.423Z,12.47
2017-12-17T16:28:00.925Z,9.43
2017-12-17T16:30:28.446Z,9.90
2017-12-17T16:32:55.950Z,9.20
2017-12-17T16:35:33.899Z,11.77
2017-12-17T16:38:01.417Z,9.13
2017-12-17T16:40:28.936Z,8.60
2017-12-17T16:42:56.434Z,11.43
2017-12-17T16:45:23.976Z,10.60
2017-12-17T16:47:51.472Z,11.13
2017-12-17T16:50:25.075Z,10.33
2017-12-17T16:52:52.834Z,9.20
2017-12-17T16:55:20.348Z,9.80
2017-12-17T16:57:47.829Z,10.07
2017-12-17T17:00:20.156Z,11.93
2017-12-17T17:02:47.650Z,18.10
2017-12-17T17:05:15.144Z,11.40
2017-12-17T17:07:42.643Z,13.43
2017-12-17T17:10:13.242Z,10.67
2017-12-17T17:12:40.767Z,12.73
2017-12-17T17:15:08.271Z,14.70
2017-12-17T17:17:35.783Z,13.10
2017-12-17T17:20:03.275Z,15.07
2017-12-17T17:22:31.547Z,14.70
2017-12-17T17:24:59.036Z,16.93
2017-12-17T17:27:26.540Z,17.47
2017-12-17T17:29:54.020Z,20.03
2017-12-17T17:32:21.515Z,14.67
2017-12-17T17:34:49.001Z,14.87
2017-12-17T17:37:17.279Z,14.17
2017-12-17T17:39:44.769Z,22.10
2017-12-17T17:42:13.031Z,21.33
2017-12-17T17:44:40.520Z,18.87
2017-12-17T17:47:08.796Z,16.90
2017-12-17T17:49:36.278Z,13.87
2017-12-17T17:52:04.549Z,20.73
2017-12-17T17:54:32.028Z,24.23
2017-12-17T17:56:59.530Z,26.70
2017-12-17T17:59:29.627Z,19.03
2017-12-17T18:01:57.146Z,21.20
2017-12-17T18:04:25.556Z,24.07
2017-12-17T18:09:47.728Z,22.27
2017-12-17T18:12:16.248Z,18.30
2017-12-17T18:14:43.731Z,22.40
2017-12-17T18:17:12.188Z,17.90
2017-12-17T18:19:39.698Z,17.83
2017-12-17T18:22:07.176Z,13.57
2017-12-17T18:24:35.464Z,16.27
2017-12-17T18:27:03.721Z,14.57
2017-12-17T18:29:31.233Z,18.20
2017-12-17T18:31:59.479Z,14.47
2017-12-17T18:34:26.976Z,18.10
2017-12-17T18:36:55.224Z,17.70
2017-12-17T18:39:22.724Z,13.60
2017-12-17T18:41:56.477Z,16.77
2017-12-17T18:44:23.980Z,17.47
2017-12-17T18:46:52.226Z,16.67
2017-12-17T18:49:20.487Z,14.60
2017-12-17T18:51:47.983Z,16.30
2017-12-17T18:54:16.264Z,16.83
2017-12-17T18:56:44.511Z,15.23
2017-12-17T18:59:12.011Z,13.60
2017-12-17T19:01:39.503Z,15.83
2017-12-17T19:04:07.785Z,13.33
2017-12-17T19:06:36.037Z,19.30
2017-12-17T19:09:03.552Z,20.20
2017-12-17T19:11:31.038Z,16.67
2017-12-17T19:13:59.460Z,14.23
2017-12-17T19:16:26.952Z,19.43
2017-12-17T19:18:54.440Z,16.33
2017-12-17T19:21:22.712Z,22.10
2017-12-17T19:23:50.207Z,19.33
2017-12-17T19:26:18.480Z,17.73
2017-12-17T19:28:45.959Z,16.10
2017-12-17T19:31:14.233Z,16.77
2017-12-17T19:33:41.715Z,20.00
2017-12-17T19:36:09.987Z,16.93
2017-12-17T19:38:37.476Z,21.40
2017-12-17T19:41:05.754Z,17.43
2017-12-17T19:43:33.296Z,18.53
2017-12-17T19:46:00.768Z,22.10
2017-12-17T19:48:28.255Z,20.53
2017-12-17T19:50:55.755Z,26.83
2017-12-17T19:53:23.998Z,18.90
2017-12-17T19:55:51.507Z,26.73
2017-12-17T19:58:19.763Z,23.07
2017-12-17T20:00:47.267Z,24.53
2017-12-17T20:03:15.516Z,18.00
2017-12-17T20:05:43.020Z,20.60
2017-12-17T20:08:11.268Z,16.57
2017-12-17T20:10:38.834Z,21.07
2017-12-17T20:13:06.308Z,19.90
2017-12-17T20:15:33.815Z,19.10
2017-12-17T20:18:02.101Z,21.87
2017-12-17T20:20:29.569Z,22.67
2017-12-17T20:22:57.078Z,23.67
2017-12-17T20:25:24.551Z,17.93
2017-12-17T20:27:52.055Z,21.97
2017-12-17T20:30:19.539Z,21.10
2017-12-17T20:32:47.060Z,22.00
2017-12-17T20:35:14.553Z,22.17
2017-12-17T20:37:42.051Z,24.67
2017-12-17T20:40:09.535Z,22.60
2017-12-17T20:42:37.804Z,23.07
2017-12-17T20:45:05.287Z,22.33
2017-12-17T20:47:32.829Z,21.47
2017-12-17T20:50:00.351Z,22.13
2017-12-17T20:52:28.604Z,21.77
2017-12-17T20:54:56.088Z,26.90
2017-12-17T20:57:23.601Z,22.13
2017-12-17T20:59:51.095Z,21.37
2017-12-17T21:02:18.600Z,21.70
2017-12-17T21:04:46.075Z,23.60
2017-12-17T21:07:14.346Z,23.40
2017-12-17T21:09:41.833Z,24.23
2017-12-17T21:12:10.106Z,20.43
2017-12-17T21:14:37.588Z,23.50
2017-12-17T21:17:05.859Z,21.00
2017-12-17T21:19:33.367Z,24.80
2017-12-17T21:22:00.858Z,20.13
2017-12-17T21:24:29.123Z,28.53
2017-12-17T21:26:56.607Z,24.13
2017-12-17T21:29:24.103Z,23.10
2017-12-17T21:31:51.579Z,22.67
2017-12-17T21:34:19.079Z,24.97
2017-12-17T21:36:46.567Z,28.93
2017-12-17T21:39:14.832Z,21.60
2017-12-17T21:41:42.311Z,24.07
2017-12-17T21:44:09.911Z,26.93
2017-12-17T21:46:37.400Z,20.30
2017-12-17T21:49:04.904Z,25.47
2017-12-17T21:51:32.388Z,25.83
2017-12-17T21:53:59.888Z,22.80
2017-12-17T21:56:27.367Z,24.63
2017-12-17T21:58:54.879Z,22.77
2017-12-17T22:01:22.365Z,26.37
2017-12-17T22:03:49.867Z,26.57
2017-12-17T22:06:17.347Z,28.50
2017-12-17T22:08:44.852Z,21.77
2017-12-17T22:11:12.341Z,30.23
2017-12-17T22:13:39.852Z,26.07
2017-12-17T22:16:07.340Z,37.07
2017-12-17T22:18:34.852Z,27.40
2017-12-17T22:21:02.339Z,24.77
2017-12-17T22:23:30.587Z,26.90
2017-12-17T22:25:58.091Z,25.50
2017-12-17T22:28:26.344Z,27.37
2017-12-17T22:30:53.855Z,25.80
2017-12-17T22:33:22.108Z,26.60
2017-12-17T22:35:49.607Z,25.17
2017-12-17T22:38:17.095Z,30.20
2017-12-17T22:40:45.368Z,30.73
2017-12-17T22:43:13.297Z,27.00
2017-12-17T22:45:40.792Z,27.13
2017-12-17T22:48:08.272Z,25.97
2017-12-17T22:50:35.775Z,25.60
2017-12-17T22:53:04.019Z,27.10
2017-12-17T22:55:31.528Z,29.43
2017-12-17T22:57:59.772Z,25.93
2017-12-17T23:00:27.268Z,26.43
2017-12-17T23:02:54.745Z,29.97
2017-12-17T23:05:29.729Z,25.63
2017-12-17T23:07:57.212Z,30.97
2017-12-17T23:10:24.720Z,27.77
2017-12-17T23:12:52.205Z,23.83
2017-12-17T23:15:20.479Z,25.40
2017-12-17T23:17:47.971Z,26.80
2017-12-17T23:20:16.239Z,42.63
2017-12-17T23:22:43.724Z,26.70
2017-12-17T23:25:11.280Z,25.77
2017-12-17T23:27:38.764Z,27.83
2017-12-17T23:30:06.264Z,28.00
2017-12-17T23:32:33.771Z,28.17
2017-12-17T23:35:01.251Z,30.53
2017-12-17T23:37:28.748Z,31.63
2017-12-17T23:39:56.996Z,30.10
2017-12-17T23:42:24.491Z,29.47
2017-12-17T23:44:51.986Z,31.40
2017-12-17T23:47:19.483Z,28.20
2017-12-17T23:49:46.959Z,25.60
2017-12-17T23:52:14.461Z,25.37
2017-12-17T23:54:41.943Z,25.70
2017-12-17T23:57:09.452Z,28.20
2017-12-17T23:59:36.945Z,27.20
